Flight Track Log - Related Links

Times and Time Zones

All times are in EDT time to prevent confusion due to time zone crossing. See the N92EJ flight status page for this flight to view local times or setup timezone preferences in your user account.

Time Position Orientation Groundspeed Altitude Reporting Facility
EDT Latitude Longitude Course Direction KTS MPH feet Rate Location/Type
Sun 02:55:45 PM 41.7833 -87.7667 68° East 66 76 1,300  Level Chicago TRACON
Sun 02:56:45 PM 41.8000 -87.8000 304° West 74 85 1,800 450 Climbing Chicago TRACON
Sun 02:57:45 PM 41.8000 -87.8167 270° West 72 83 2,200 667 Climbing Chicago TRACON
Sun 02:58:51 PM 41.8000 -87.8500 270° West 76 87 3,200 286 Climbing Chicago TRACON
Sun 02:59:51 PM 41.8000 -87.8833 270° West 107 123 2,800 -200 Descending Chicago TRACON
Sun 03:00:51 PM 41.8000 -87.9333 270° West 119 137 2,800  Level Chicago TRACON
Sun 03:01:00 PM 41.8640 -87.4647 68° East  Level FlightAware Approximate
Sun 03:01:51 PM 41.7833 -87.9667 236° Southwest 102 117 2,800  Level Chicago TRACON
Sun 03:02:45 PM 41.7833 -88.0000 270° West 101 116 2,800  Level Chicago TRACON
Sun 03:03:17 PM 41.7883 -88.0194 289° West 104 120 2,800  Level Chicago Center
Sun 03:04:19 PM 41.7944 -88.0625 281° West 116 133 2,800  Level Chicago Center
Sun 03:05:21 PM 41.8064 -88.1006 293° West 108 124 2,800  Level Chicago Center
Sun 03:06:23 PM 41.8172 -88.1381 291° West 107 123 2,800  Level Chicago Center
Sun 03:07:25 PM 41.8289 -88.1800 290° West 108 124 2,800 290 Level Chicago Center
Sun 03:08:27 PM 41.8372 -88.2114 290° West 87 100 3,400 484 Climbing Chicago Center
Sun 03:09:29 PM 41.8503 -88.2294 314° West 77 89 3,800 242 Climbing Chicago Center
Sun 03:10:31 PM 41.8878 -88.2378 351° North 125 144 3,900 48 Climbing Chicago Center
Sun 03:11:34 PM 41.9208 -88.2453 350° North 121 139 3,900  Level Chicago Center
Sun 03:12:36 PM 41.9583 -88.2414 North 125 144 3,900 -48 Level Chicago Center
Sun 03:13:38 PM 41.9947 -88.2347 North 129 148 3,800 -48 Descending Chicago Center
Sun 03:14:40 PM 42.0336 -88.2258 10° North 130 150 3,800  Level Chicago Center
Sun 03:15:42 PM 42.0700 -88.2200 North 130 150 3,800  Level Chicago Center
Sun 03:16:44 PM 42.1069 -88.2142 North 133 153 3,800  Level Chicago Center
Sun 03:17:46 PM 42.1453 -88.2072 North 132 152 3,800  Level Chicago Center
Sun 03:18:48 PM 42.1822 -88.2014 North 133 153 3,800  Level Chicago Center
Sun 03:19:51 PM 42.2208 -88.1947 North 132 152 3,800 144 Level Chicago Center
Sun 03:20:53 PM 42.2561 -88.1889 North 129 148 4,100 532 Climbing Chicago Center
Sun 03:21:55 PM 42.2858 -88.1808 11° North 101 116 4,900 677 Climbing Chicago Center
Sun 03:22:57 PM 42.3122 -88.1761 North 96 110 5,500 435 Climbing Chicago Center
Sun 03:23:59 PM 42.3389 -88.1689 11° North 100 115 5,800 145 Climbing Chicago Center
Sun 03:25:01 PM 42.3764 -88.1592 11° North 128 147 5,800  Level Chicago Center
Sun 03:26:03 PM 42.4139 -88.1558 North 132 152 5,800  Level Chicago Center
Sun 03:27:05 PM 42.4611 -88.1478 North 139 160 5,800 48 Level Chicago Center
Sun 03:28:07 PM 42.4994 -88.1414 North 139 160 5,900 384 Climbing Chicago Center
Sun 03:29:10 PM 42.5217 -88.1086 47° Northeast 147 169 6,600 528 Climbing Chicago Center
Sun 03:30:12 PM 42.5306 -88.0603 76° East 136 157 7,000 194 Climbing Chicago Center
Sun 03:31:14 PM 42.5367 -87.9997 82° East 150 173 7,000  Level Chicago Center
Sun 03:32:16 PM 42.5469 -87.9244 79° East 165 190 7,000  Level Chicago Center
Sun 03:33:18 PM 42.5525 -87.8594 83° East 168 193 7,000  Level Chicago Center
Sun 03:34:20 PM 42.5539 -87.7928 88° East 178 205 7,000  Level Chicago Center
Sun 03:35:22 PM 42.5556 -87.7281 88° East 178 205 7,000  Level Chicago Center
Sun 03:36:24 PM 42.5550 -87.6631 91° East 177 204 7,000  Level Chicago Center
Sun 03:37:27 PM 42.5544 -87.5983 91° East 176 203 7,000 192 Level Chicago Center
Sun 03:38:29 PM 42.5692 -87.5222 75° East 176 203 7,400 532 Climbing Chicago Center
Sun 03:39:31 PM 42.5822 -87.4847 65° Northeast 136 157 8,100 629 Climbing Chicago Center
Sun 03:40:33 PM 42.5942 -87.4367 71° East 123 142 8,700 435 Climbing Chicago Center
Sun 03:41:35 PM 42.6011 -87.3886 79° East 124 143 9,000 144 Climbing Chicago Center
Sun 03:42:38 PM 42.6094 -87.3172 81° East 161 185 9,000  Level Chicago Center
Sun 03:43:39 PM 42.6164 -87.2519 82° East 173 199 9,000  Level Chicago Center
Sun 03:44:41 PM 42.6281 -87.1886 76° East 173 199 9,000  Level Chicago Center
Sun 03:45:43 PM 42.6386 -87.1264 77° East 172 198 9,000  Level Chicago Center
Sun 03:46:46 PM 42.6494 -87.0633 77° East 172 198 9,000  Level Chicago Center
Sun 03:47:48 PM 42.6592 -87.0003 78° East 172 198 9,000  Level Chicago Center
Sun 03:48:50 PM 42.6719 -86.9247 77° East 172 198 9,000  Level Chicago Center
Sun 03:49:52 PM 42.6825 -86.8608 77° East 172 198 9,000  Level Chicago Center
Sun 03:50:54 PM 42.6878 -86.7950 84° East 173 199 9,000  Level Chicago Center
Sun 03:51:56 PM 42.6897 -86.7300 88° East 174 200 9,000  Level Chicago Center
Sun 03:52:58 PM 42.6919 -86.6656 87° East 173 199 9,000  Level Chicago Center
Sun 03:54:00 PM 42.6953 -86.5878 87° East 173 199 9,000  Level Chicago Center
Sun 03:55:02 PM 42.6989 -86.5225 86° East 173 199 9,000  Level Chicago Center
Sun 03:56:05 PM 42.7031 -86.4589 85° East 171 197 9,000 48 Level Chicago Center
Sun 03:57:07 PM 42.7300 -86.4111 52° Northeast 158 182 9,100 48 Climbing Chicago Center
Sun 03:58:09 PM 42.7589 -86.3647 50° Northeast 159 183 9,100 -48 Level Chicago Center
Sun 03:59:11 PM 42.7883 -86.3156 51° Northeast 164 189 9,000  Descending Chicago Center
Sun 04:00:13 PM 42.8242 -86.2581 50° Northeast 165 190 9,100 48 Climbing Chicago Center
Sun 04:01:15 PM 42.8550 -86.2075 50° Northeast 171 197 9,100 -48 Level Chicago Center
Sun 04:02:18 PM 42.8811 -86.1517 57° Northeast 173 199 9,000 -48 Descending Chicago Center
Sun 04:03:20 PM 42.8992 -86.0922 67° East 173 199 9,000 48 Level Chicago Center
Sun 04:04:22 PM 42.9014 -86.0258 87° East 177 204 9,100  Climbing Chicago Center
Sun 04:05:24 PM 42.9003 -85.9469 91° East 176 203 9,000 -48 Descending Chicago Center
Sun 04:06:26 PM 42.9133 -85.8917 72° East 159 183 9,000 -48 Level Chicago Center
Sun 04:07:28 PM 42.9250 -85.8300 75° East 165 190 8,900  Descending Chicago Center
Sun 04:08:30 PM 42.9306 -85.7664 83° East 167 192 9,000  Climbing Chicago Center
Sun 04:09:32 PM 42.9364 -85.7017 83° East 170 196 8,900 -48 Descending Chicago Center
Sun 04:10:34 PM 42.9467 -85.6253 80° East 171 197 8,900  Level Chicago Center
Sun 04:11:37 PM 42.9547 -85.5611 80° East 171 197 8,900  Level Chicago Center
Sun 04:12:39 PM 42.9628 -85.4994 80° East 171 197 8,900  Level Chicago Center
Sun 04:13:41 PM 42.9700 -85.4347 81° East 170 196 8,900  Level Chicago Center
Sun 04:14:43 PM 42.9781 -85.3714 80° East 170 196 8,900  Level Chicago Center
Sun 04:15:45 PM 42.9861 -85.2953 82° East 170 196 8,900  Level Chicago Center
Sun 04:16:47 PM 42.9939 -85.2303 81° East 171 197 8,900 48 Level Chicago Center
Sun 04:17:49 PM 43.0022 -85.1644 80° East 173 199 9,000  Climbing Chicago Center
Sun 04:18:51 PM 43.0092 -85.0978 82° East 175 201 8,900  Descending Chicago Center
Sun 04:19:54 PM 43.0169 -85.0317 81° East 176 203 9,000 48 Climbing Chicago Center
Sun 04:20:56 PM 43.0247 -84.9639 81° East 177 204 9,000  Level Chicago Center
Sun 04:21:58 PM 43.0331 -84.8808 82° East 184 212 9,000  Level Chicago Center
Sun 04:22:39 PM 43.0381 -84.8331 82° East 184 212 9,000  Level Cleveland Center
Sun 04:23:41 PM 43.0458 -84.7597 82° East 185 213 9,000  Level Cleveland Center
Sun 04:24:43 PM 43.0536 -84.6886 81° East 183 211 9,000  Level Cleveland Center
Sun 04:25:45 PM 43.0622 -84.6175 81° East 181 208 9,000 -48 Level Cleveland Center
Sun 04:26:47 PM 43.0706 -84.5494 80° East 179 206 8,900 -48 Descending Cleveland Center
Sun 04:27:49 PM 43.0717 -84.4803 89° East 178 205 8,900 48 Level Cleveland Center
Sun 04:28:52 PM 43.0636 -84.4111 99° East 178 205 9,000  Climbing Cleveland Center
Sun 04:29:54 PM 43.0556 -84.3475 100° East 178 205 8,900  Descending Cleveland Center
Sun 04:30:56 PM 43.0486 -84.2800 98° East 175 201 9,000  Climbing Cleveland Center
Sun 04:31:58 PM 43.0403 -84.2086 99° East 181 208 8,900  Descending Cleveland Center
Sun 04:33:00 PM 43.0331 -84.1381 98° East 181 208 9,000  Climbing Cleveland Center
Sun 04:34:02 PM 43.0253 -84.0694 99° East 177 204 8,900 -48 Descending Cleveland Center
Sun 04:35:04 PM 43.0186 -84.0017 98° East 175 201 8,900 48 Level Cleveland Center
Sun 04:36:06 PM 43.0111 -83.9328 98° East 176 203 9,000  Climbing Cleveland Center
Sun 04:37:09 PM 43.0028 -83.8622 99° East 178 205 8,900  Descending Cleveland Center
Sun 04:38:11 PM 42.9961 -83.7986 98° East 178 205 9,000  Climbing Cleveland Center
Sun 04:39:13 PM 42.9881 -83.7289 99° East 178 205 8,900  Descending Cleveland Center
Sun 04:40:15 PM 42.9825 -83.6633 97° East 169 194 9,000  Climbing Cleveland Center
Sun 04:41:17 PM 42.9836 -83.5986 89° East 169 194 8,900 -48 Descending Cleveland Center
Sun 04:42:19 PM 42.9867 -83.5394 86° East 145 167 8,900  Level Cleveland Center
Sun 04:42:35 PM 42.9875 -83.5264 85° East 142 163 8,900  Level Cleveland Center
Sun 04:43:20 PM 42.9875 -83.4856 90° East 136 157 8,900  Level Cleveland Center
Sun 04:43:42 PM 42.9875 -83.4722 90° East 126 145 8,900  Level Cleveland Center
Sun 04:44:22 PM 42.9858 -83.4378 94° East 129 148 8,900  Level Cleveland Center
Sun 04:44:48 PM 42.9839 -83.4144 96° East 130 150 8,900 97 Level Cleveland Center
Sun 04:45:24 PM 42.9817 -83.3797 95° East 140 161 9,000 98 Climbing Cleveland Center
Sun 04:45:49 PM 42.9794 -83.3625 100° East 148 170 9,000  Level Cleveland Center
Sun 04:46:26 PM 42.9783 -83.3242 92° East 147 169 9,000  Level Cleveland Center
Sun 04:46:55 PM 42.9764 -83.2964 95° East 154 177 9,000  Level Cleveland Center
Sun 04:47:28 PM 42.9756 -83.2606 92° East 154 177 9,000 -109 Level Cleveland Center
Sun 04:47:50 PM 42.9742 -83.2447 97° East 159 183 8,900  Descending Cleveland Center
Sun 04:48:30 PM 42.9731 -83.1992 92° East 162 186 9,000 98 Climbing Cleveland Center
Sun 04:48:51 PM 42.9731 -83.1789 90° East 165 190 9,000 -97 Level Cleveland Center
Sun 04:49:32 PM 42.9708 -83.1325 94° East 163 188 8,900 -200 Descending Cleveland Center
Sun 04:49:51 PM 42.9697 -83.1128 94° East 164 189 8,800  Descending Cleveland Center
Sun 04:50:34 PM 42.9711 -83.0786 87° East 145 167 8,900 98 Climbing Cleveland Center
Sun 04:50:52 PM 42.9714 -83.0644 88° East 139 160 8,900 -97 Level Cleveland Center
Sun 04:51:36 PM 42.9697 -83.0239 93° East 142 163 8,800  Descending Cleveland Center
Sun 04:51:52 PM 42.9694 -83.0072 91° East 142 163 8,900 194 Climbing Cleveland Center
Sun 04:52:38 PM 42.9664 -82.9642 96° East 149 171 9,000  Climbing Cleveland Center
Sun 04:52:53 PM 42.9653 -82.9497 96° East 158 182 8,900 -97 Descending Cleveland Center
Sun 04:53:40 PM 42.9614 -82.8983 96° East 158 182 8,900  Level Cleveland Center
Sun 04:53:54 PM 42.9617 -82.8864 88° East 158 182 8,900  Level Cleveland Center
Sun 04:54:42 PM 42.9611 -82.8433 91° East 151 174 8,900  Level Cleveland Center
Sun 04:54:54 PM 42.9617 -82.8322 86° East 150 173 8,900  Level Cleveland Center
Sun 04:55:44 PM 42.9592 -82.7800 94° East 152 175 8,900  Level Cleveland Center
Sun 04:55:55 PM 42.9578 -82.7717 103° East 155 178 8,900 97 Level Cleveland Center
Sun 04:56:46 PM 42.9558 -82.7228 93° East 152 175 9,000  Climbing Cleveland Center
Sun 04:57:48 PM 42.9508 -82.6556 96° East 163 188 8,900 -49 Descending Cleveland Center
Sun 04:58:49 PM 42.9444 -82.5967 98° East 162 186 8,900 47 Level Cleveland Center
Sun 04:59:57 PM 42.9292 -82.5314 108° East 161 185 9,000 48 Climbing Cleveland Center
Sun 05:00:53 PM 42.9156 -82.4767 109° East 162 186 9,000 -51 Level Cleveland Center
Sun 05:01:55 PM 42.9053 -82.4183 104° East 161 185 8,900  Descending Cleveland Center
Sun 05:03:09 PM 42.8833 -82.3333 109° East 160 184 9,000 45 Climbing Toronto Center
Sun 05:04:09 PM 42.8667 -82.2667 109° East 160 184 9,000  Level Toronto Center
Sun 05:05:09 PM 42.8500 -82.2333 124° Southeast 160 184 9,000  Level Toronto Center
Sun 05:06:09 PM 42.8500 -82.1500 90° East 150 173 9,000  Level Toronto Center
Sun 05:07:09 PM 42.8333 -82.1167 124° Southeast 150 173 9,000 -53 Level Toronto Center
Sun 05:08:02 PM 42.8356 -82.0722 86° East 154 177 8,900 -50 Descending Cleveland Center
Sun 05:09:08 PM 42.8233 -82.0100 105° East 154 177 8,900 47 Level Cleveland Center
Sun 05:10:09 PM 42.8117 -81.9564 107° East 154 177 9,000 49 Climbing Cleveland Center
Sun 05:11:11 PM 42.8000 -81.9011 106° East 150 173 9,000 -48 Level Cleveland Center
Sun 05:12:13 PM 42.7878 -81.8436 106° East 151 174 8,900  Descending Cleveland Center
Sun 05:13:15 PM 42.7761 -81.7844 105° East 153 176 9,000 49 Climbing Cleveland Center
Sun 05:14:16 PM 42.7647 -81.7264 105° East 153 176 9,000 -49 Level Cleveland Center
Sun 05:15:18 PM 42.7531 -81.6722 106° East 153 176 8,900  Descending Cleveland Center
Sun 05:16:20 PM 42.7414 -81.6139 105° East 154 177 9,000 48 Climbing Cleveland Center
Sun 05:17:22 PM 42.7283 -81.5558 107° East 153 176 9,000  Level Cleveland Center
Sun 05:18:23 PM 42.7167 -81.5017 106° East 156 180 9,000  Level Cleveland Center
Sun 05:19:25 PM 42.7058 -81.4450 105° East 156 180 9,000  Level Cleveland Center
Sun 05:20:27 PM 42.6936 -81.3867 106° East 156 180 9,000  Level Cleveland Center
Sun 05:21:29 PM 42.6797 -81.3292 108° East 157 181 9,000  Level Cleveland Center
Sun 05:22:30 PM 42.6644 -81.2611 107° East 159 183 9,000  Level Cleveland Center
Sun 05:23:32 PM 42.6528 -81.2019 105° East 160 184 9,000  Level Cleveland Center
Sun 05:24:34 PM 42.6392 -81.1436 108° East 160 184 9,000  Level Cleveland Center
Sun 05:25:35 PM 42.6281 -81.0858 105° East 159 183 9,000 49 Level Cleveland Center
Sun 05:26:37 PM 42.6150 -81.0283 107° East 159 183 9,100 48 Climbing Cleveland Center
Sun 05:27:39 PM 42.6025 -80.9700 106° East 160 184 9,100  Level Cleveland Center
Sun 05:28:40 PM 42.5914 -80.9142 105° East 158 182 9,100  Level Cleveland Center
Sun 05:29:42 PM 42.5797 -80.8594 106° East 153 176 9,100 -48 Level Cleveland Center
Sun 05:30:44 PM 42.5678 -80.8047 106° East 152 175 9,000 -49 Descending Cleveland Center
Sun 05:31:45 PM 42.5569 -80.7536 106° East 145 167 9,000 49 Level Cleveland Center
Sun 05:32:47 PM 42.5442 -80.6914 106° East 144 166 9,100 48 Climbing Cleveland Center
Sun 05:33:49 PM 42.5300 -80.6342 109° East 152 175 9,100  Level Cleveland Center
Sun 05:34:50 PM 42.5172 -80.5800 108° East 152 175 9,100  Level Cleveland Center
Sun 05:35:52 PM 42.5072 -80.5256 104° East 152 175 9,100  Level Cleveland Center
Sun 05:36:54 PM 42.4964 -80.4708 105° East 151 174 9,100  Level Cleveland Center
Sun 05:37:55 PM 42.4833 -80.4167 108° East 151 174 9,100  Level Cleveland Center
Sun 05:38:57 PM 42.4714 -80.3619 106° East 151 174 9,100  Level Cleveland Center
Sun 05:39:58 PM 42.4589 -80.3028 106° East 151 174 9,100  Level Cleveland Center
Sun 05:41:00 PM 42.4467 -80.2461 106° East 151 174 9,100  Level Cleveland Center
Sun 05:42:01 PM 42.4350 -80.1900 106° East 151 174 9,100  Level Cleveland Center
Sun 05:43:03 PM 42.4231 -80.1342 106° East 150 173 9,100  Level Cleveland Center
Sun 05:44:04 PM 42.4103 -80.0833 109° East 150 173 9,100  Level Cleveland Center
Sun 05:45:06 PM 42.3981 -80.0261 106° East 150 173 9,100  Level Cleveland Center
Sun 05:46:07 PM 42.3853 -79.9708 107° East 150 173 9,100  Level Cleveland Center
Sun 05:47:09 PM 42.3731 -79.9147 106° East 151 174 9,100  Level Cleveland Center
Sun 05:48:10 PM 42.3606 -79.8631 108° East 150 173 9,100  Level Cleveland Center
Sun 05:49:12 PM 42.3467 -79.8056 108° East 154 177 9,100  Level Cleveland Center
Sun 05:50:13 PM 42.3336 -79.7475 107° East 155 178 9,100  Level Cleveland Center
Sun 05:51:15 PM 42.3222 -79.6897 105° East 154 177 9,100  Level Cleveland Center
Sun 05:52:16 PM 42.3083 -79.6331 108° East 153 176 9,100 -276 Level Cleveland Center
Sun 05:54:09 PM 42.2667 -79.5000 113° Southeast 170 196 8,300 -416 Descending Toronto Center
Sun 05:55:09 PM 42.2500 -79.4333 109° East 170 196 7,900 -350 Descending Toronto Center
Sun 05:56:09 PM 42.2500 -79.3833 90° East 170 196 7,600 -150 Descending Toronto Center
Sun 05:57:09 PM 42.2333 -79.3167 109° East 160 184 7,600  Level Toronto Center
Sun 05:58:09 PM 42.2167 -79.2667 114° Southeast 160 184 7,600  Level Toronto Center
Sun 05:59:09 PM 42.2000 -79.2000 109° East 150 173 7,600  Level Toronto Center
Sun 06:00:09 PM 42.2000 -79.1667 90° East 160 184 7,600 -43 Level Toronto Center
Sun 06:01:29 PM 42.1853 -79.1086 109° East 155 178 7,500 -42 Descending Cleveland Center
Sun 06:02:31 PM 42.1753 -79.0514 103° East 154 177 7,500 -49 Level Cleveland Center
Sun 06:03:32 PM 42.1675 -78.9964 101° East 146 168 7,400 -49 Descending Cleveland Center
Sun 06:04:34 PM 42.1589 -78.9456 103° East 146 168 7,400  Level Cleveland Center
Sun 06:05:35 PM 42.1489 -78.8942 105° East 145 167 7,400  Level Cleveland Center
Sun 06:06:36 PM 42.1414 -78.8367 100° East 150 173 7,400  Level Cleveland Center
Sun 06:07:38 PM 42.1311 -78.7828 104° East 152 175 7,400  Level Cleveland Center
Sun 06:08:39 PM 42.1186 -78.7289 107° East 151 174 7,400  Level Cleveland Center
Sun 06:09:41 PM 42.1069 -78.6633 103° East 151 174 7,400  Level Cleveland Center
Sun 06:10:42 PM 42.0992 -78.6103 101° East 150 173 7,400  Level Cleveland Center
Sun 06:11:44 PM 42.0897 -78.5567 103° East 150 173 7,400  Level Cleveland Center
Sun 06:12:45 PM 42.0778 -78.5008 106° East 151 174 7,400  Level Cleveland Center
Sun 06:13:47 PM 42.0681 -78.4450 103° East 153 176 7,400  Level Cleveland Center
Sun 06:14:48 PM 42.0589 -78.3886 102° East 153 176 7,400  Level Cleveland Center
Sun 06:15:50 PM 42.0475 -78.3322 105° East 154 177 7,400  Level Cleveland Center
Sun 06:16:51 PM 42.0353 -78.2658 104° East 154 177 7,400  Level Cleveland Center
Sun 06:17:53 PM 42.0250 -78.2092 104° East 154 177 7,400  Level Cleveland Center
Sun 06:18:54 PM 42.0142 -78.1492 104° East 154 177 7,400  Level Cleveland Center
Sun 06:19:56 PM 42.0033 -78.0931 105° East 155 178 7,400  Level Cleveland Center
Sun 06:20:57 PM 41.9928 -78.0358 104° East 155 178 7,400  Level Cleveland Center
Sun 06:21:59 PM 41.9819 -77.9783 104° East 155 178 7,400  Level Cleveland Center
Sun 06:23:00 PM 41.9719 -77.9217 103° East 156 180 7,400  Level Cleveland Center
Sun 06:24:02 PM 41.9611 -77.8658 105° East 156 180 7,400 48 Level Cleveland Center
Sun 06:25:04 PM 41.9506 -77.8103 104° East 156 180 7,500 49 Climbing Cleveland Center
Sun 06:26:05 PM 41.9378 -77.7417 104° East 156 180 7,500  Level Cleveland Center
Sun 06:27:07 PM 41.9269 -77.6853 104° East 156 180 7,500  Level Cleveland Center
Sun 06:28:08 PM 41.9161 -77.6283 104° East 156 180 7,500  Level Cleveland Center
Sun 06:29:10 PM 41.9056 -77.5719 104° East 156 180 7,500  Level Cleveland Center
Sun 06:30:11 PM 41.8944 -77.5144 105° East 156 180 7,500  Level Cleveland Center
Sun 06:31:13 PM 41.8842 -77.4583 104° East 157 181 7,500  Level Cleveland Center
Sun 06:32:15 PM 41.8733 -77.4003 104° East 157 181 7,500  Level Cleveland Center
Sun 06:33:16 PM 41.8600 -77.3317 105° East 158 182 7,500  Level Cleveland Center
Sun 06:34:18 PM 41.8478 -77.2750 106° East 158 182 7,500  Level Cleveland Center
Sun 06:35:19 PM 41.8372 -77.2192 104° East 158 182 7,500  Level Cleveland Center
Sun 06:36:21 PM 41.8275 -77.1642 103° East 157 181 7,500  Level Cleveland Center
Sun 06:37:22 PM 41.8167 -77.1092 105° East 156 180 7,500  Level Cleveland Center
Sun 06:39:18 PM 41.7944 -76.9989 105° East 155 178 7,500  Level Boston Center
Sun 06:40:22 PM 41.7831 -76.9422 105° East 155 178 7,500  Level Boston Center
Sun 06:41:23 PM 41.7714 -76.8811 104° East 155 178 7,500  Level Boston Center
Sun 06:42:23 PM 41.7611 -76.8253 104° East 155 178 7,500  Level Boston Center
Sun 06:43:27 PM 41.7494 -76.7703 106° East 155 178 7,500  Level Boston Center
Sun 06:44:28 PM 41.7394 -76.7156 104° East 155 178 7,500  Level Boston Center
Sun 06:45:29 PM 41.7289 -76.6608 104° East 154 177 7,500  Level Boston Center
Sun 06:46:33 PM 41.7172 -76.6064 106° East 154 177 7,500  Level Boston Center
Sun 06:47:34 PM 41.7067 -76.5511 104° East 154 177 7,500  Level Boston Center
Sun 06:48:35 PM 41.6925 -76.4842 106° East 154 177 7,500  Level Boston Center
Sun 06:49:39 PM 41.6806 -76.4275 106° East 154 177 7,500  Level Boston Center
Sun 06:50:39 PM 41.6700 -76.3711 104° East 155 178 7,500  Level Boston Center
Sun 06:51:40 PM 41.6581 -76.3144 106° East 155 178 7,500  Level Boston Center
Sun 06:52:44 PM 41.6453 -76.2583 107° East 155 178 7,500  Level Boston Center
Sun 06:53:45 PM 41.6344 -76.2014 104° East 156 180 7,500  Level Boston Center
Sun 06:54:48 PM 41.6222 -76.1447 106° East 156 180 7,500  Level Boston Center
Sun 06:55:49 PM 41.6092 -76.0772 104° East 156 180 7,500  Level Boston Center
Sun 06:56:49 PM 41.5978 -76.0203 105° East 156 180 7,500  Level Boston Center
Sun 06:57:53 PM 41.5869 -75.9647 105° East 156 180 7,500  Level Boston Center
Sun 06:58:54 PM 41.5744 -75.9092 107° East 156 180 7,500 48 Level Boston Center
Sun 06:59:57 PM 41.5633 -75.8519 105° East 156 180 7,600  Climbing Boston Center
Sun 07:00:57 PM 41.5517 -75.7944 105° East 160 184 7,500 -48 Descending Boston Center
Sun 07:02:01 PM 41.5397 -75.7381 106° East 157 181 7,500  Level Boston Center
Sun 07:03:02 PM 41.5250 -75.6697 106° East 159 183 7,500  Level Boston Center
Sun 07:04:03 PM 41.5144 -75.6133 104° East 159 183 7,500 48 Level Boston Center
Sun 07:05:07 PM 41.5019 -75.5550 106° East 159 183 7,600  Climbing Boston Center
Sun 07:06:07 PM 41.4892 -75.4967 106° East 160 184 7,500 -49 Descending Boston Center
Sun 07:07:10 PM 41.4769 -75.4397 106° East 160 184 7,500 48 Level Boston Center
Sun 07:08:11 PM 41.4639 -75.3803 106° East 162 186 7,600  Climbing Boston Center
Sun 07:09:14 PM 41.4511 -75.3219 106° East 162 186 7,500 -48 Descending Boston Center
Sun 07:10:15 PM 41.4369 -75.2531 105° East 162 186 7,500  Level Boston Center
Sun 07:11:18 PM 41.4267 -75.1939 103° East 162 186 7,500 48 Level Boston Center
Sun 07:12:19 PM 41.4131 -75.1367 108° East 162 186 7,600  Climbing Boston Center
Sun 07:13:20 PM 41.3972 -75.0731 108° East 163 188 7,500  Descending Boston Center
Sun 07:14:21 PM 41.3858 -75.0153 105° East 163 188 7,600  Climbing Boston Center
Sun 07:15:25 PM 41.3728 -74.9503 105° East 166 191 7,500 -48 Descending Boston Center
Sun 07:16:25 PM 41.3628 -74.8911 103° East 166 191 7,500  Level Boston Center
Sun 07:17:29 PM 41.3492 -74.8250 105° East 168 193 7,500  Level Boston Center
Sun 07:18:29 PM 41.3364 -74.7650 106° East 168 193 7,500  Level Boston Center
Sun 07:19:30 PM 41.3236 -74.7053 106° East 168 193 7,500  Level Boston Center
Sun 07:21:35 PM 41.2978 -74.5808 105° East 168 193 7,500  Level Boston Center
Sun 07:22:35 PM 41.2869 -74.5172 103° East 168 193 7,500  Level Boston Center
Sun 07:23:39 PM 41.2747 -74.4583 105° East 167 192 7,500  Level Boston Center
Sun 07:24:40 PM 41.2617 -74.4000 107° East 167 192 7,500  Level Boston Center
Sun 07:25:41 PM 41.2489 -74.3364 105° East 167 192 7,500  Level Boston Center
Sun 07:26:45 PM 41.2367 -74.2761 105° East 167 192 7,500  Level Boston Center
Sun 07:27:46 PM 41.2250 -74.2125 104° East 167 192 7,500  Level Boston Center
Sun 07:28:47 PM 41.2119 -74.1531 106° East 167 192 7,500  Level Boston Center
Sun 07:29:47 PM 41.1992 -74.0939 106° East 167 192 7,500  Level Boston Center
Sun 07:30:51 PM 41.1853 -74.0308 106° East 167 192 7,500  Level Boston Center
Sun 07:31:52 PM 41.1714 -73.9706 107° East 168 193 7,500 -97 Level Boston Center
Sun 07:32:55 PM 41.1564 -73.9053 107° East 172 198 7,300 -244 Descending Boston Center
Sun 07:33:55 PM 41.1500 -73.8333 97° East 177 204 7,000 -250 Descending New York TRACON
Sun 07:34:55 PM 41.1333 -73.7833 114° Southeast 173 199 6,800 -250 Descending New York TRACON
Sun 07:35:55 PM 41.1167 -73.7167 108° East 180 207 6,500 -300 Descending New York TRACON
Sun 07:36:55 PM 41.1000 -73.6667 114° Southeast 178 205 6,200 -250 Descending New York TRACON
Sun 07:37:55 PM 41.1000 -73.6000 90° East 168 193 6,000 -250 Descending New York TRACON
Sun 07:38:55 PM 41.0833 -73.5333 108° East 171 197 5,700 -450 Descending New York TRACON
Sun 07:39:55 PM 41.0667 -73.4833 114° Southeast 173 199 5,100 -500 Descending New York TRACON
Sun 07:40:55 PM 41.0333 -73.4333 131° Southeast 169 194 4,700 -400 Descending New York TRACON
Sun 07:41:55 PM 41.0000 -73.3833 131° Southeast 164 189 4,300 -400 Descending New York TRACON
Sun 07:42:55 PM 40.9667 -73.3500 143° Southeast 163 188 3,900 -350 Descending New York TRACON
Sun 07:43:55 PM 40.9500 -73.3000 114° Southeast 165 190 3,600 -300 Descending New York TRACON
Sun 07:44:55 PM 40.9167 -73.2333 123° Southeast 165 190 3,300 -350 Descending New York TRACON
Sun 07:45:55 PM 40.9000 -73.1833 114° Southeast 165 190 2,900 -368 Descending New York TRACON
Sun 07:46:49 PM 40.8833 -73.1500 123° Southeast 162 186 2,600 -316 Descending New York TRACON
Sun 07:47:49 PM 40.8667 -73.1000 114° Southeast 155 178 2,300 -450 Descending New York TRACON
Sun 07:48:49 PM 40.8333 -73.0667 143° Southeast 119 137 1,700 -850 Descending New York TRACON
Sun 07:49:49 PM 40.8167 -73.0833 217° Southwest 75 86 600 -1,100 Descending New York TRACON
Sun 07:51:00 PM 40.7952 -73.1002 134° Southeast  Level Estimated
Sun 07:58:00 PM 40.7952 -73.1002 North  Level Estimated

Login

Don't have an account? Register now (free) for customized features, flight alerts, and more!